Seago Piraeus — OXVD2 — position and weather

sailwx.info

Track history (hours):
 
Tides and Currents Weather Stations Pressure Air Temp Water Temp Dewpoint Dewpoint Depression Visibility Wind Speed Wind Dir Waves Ship Positions

Seago Piraeus

Last reported at 2017-Oct-13 03:21 UTC. Time now 2017-Oct-18 16:57 UTC.
Position N 31°51' E 034°37'.

Length 294 m; draft 9.9 m.

Type: Ship (hazmat cat A). MMSI: 219117000.

Date/timePositionNaut miles runAvg speedWind from/ knotsBaromVisibWave heightAir tempDewpointWater temp
2017-Oct-13 03:21N 31°51' E 034°37'1 0.0
2017-Oct-10 23:28N 31°53' E 034°37'18 2.3
2017-Oct-10 15:37N 32°04' E 034°22'313.8
2017-Oct-10 15:24N 32°07' E 034°20'714.0
2017-Oct-10 14:55N 32°13' E 034°18'1314.2
2017-Oct-10 13:59N 32°26' E 034°13'14213.8
2017-Oct-10 03:43N 34°36' E 033°05'211.8
2017-Oct-10 03:30N 34°39' E 033°04'2 4.8
2017-Oct-10 03:00N 34°39' E 033°01'0 0.0
2017-Oct-10 02:30N 34°39' E 033°01'0 0.0
2017-Oct-10 02:00N 34°39' E 033°01'0 0.0
2017-Oct-10 01:30N 34°39' E 033°01'0 0.0
2017-Oct-10 01:00N 34°39' E 033°01'0 0.0
2017-Oct-10 00:30N 34°39' E 033°01'0 0.0
2017-Oct-10 00:00N 34°39' E 033°01'0 0.0
2017-Oct-09 23:27N 34°39' E 033°01'0 0.0
2017-Oct-09 22:57N 34°39' E 033°01'0 0.0
2017-Oct-09 22:27N 34°39' E 033°01'0 0.0
2017-Oct-09 22:00N 34°39' E 033°01'0 0.0
2017-Oct-09 21:30N 34°39' E 033°01'0 0.0
2017-Oct-09 21:00N 34°39' E 033°01'0 0.0
2017-Oct-09 20:24N 34°39' E 033°01'0 0.0
2017-Oct-09 20:00N 34°39' E 033°01'0 0.0
2017-Oct-09 19:27N 34°39' E 033°01'0 0.0
2017-Oct-09 19:00N 34°39' E 033°01'0 0.0
2017-Oct-09 18:30N 34°39' E 033°01'0 0.0
2017-Oct-09 18:00N 34°39' E 033°01'0 0.0
2017-Oct-09 17:30N 34°39' E 033°01'0 0.0
2017-Oct-09 17:00N 34°39' E 033°01'0 0.0
2017-Oct-09 16:30N 34°39' E 033°01'0 0.0
2017-Oct-09 16:00N 34°39' E 033°01'0 0.0
2017-Oct-09 15:30N 34°39' E 033°01'0 0.0
2017-Oct-09 15:00N 34°39' E 033°01'0 0.0
2017-Oct-09 14:30N 34°39' E 033°01'0 0.0
2017-Oct-09 14:00N 34°39' E 033°01'0 0.0
2017-Oct-09 13:30N 34°39' E 033°01'0 0.0
2017-Oct-09 13:00N 34°39' E 033°01'0 0.0
2017-Oct-09 12:30N 34°39' E 033°01'0 0.0
2017-Oct-09 12:00N 34°39' E 033°01'0 0.0
2017-Oct-09 11:30N 34°39' E 033°01'1 2.3
2017-Oct-09 11:00N 34°39' E 033°02'42118.7
2017-Oct-08 12:28N 35°40' E 024°33'47318.8
2017-Oct-07 11:19N 36°29' E 014°51'619.5
2017-Oct-07 11:00N 36°29' E 014°44'1019.8
2017-Oct-07 10:30N 36°31' E 014°31'1019.9
2017-Oct-07 10:00N 36°33' E 014°19'1019.9
2017-Oct-07 09:30N 36°36' E 014°08'1019.7
2017-Oct-07 09:00N 36°39' E 013°56'1019.5
2017-Oct-07 08:30N 36°41' E 013°44'1019.7
2017-Oct-07 08:00N 36°45' E 013°33'57219.1
2017-Oct-06 02:04N 36°50' E 001°39'119.1
2017-Oct-06 02:00N 36°50' E 001°37'1019.1
2017-Oct-06 01:27N 36°48' E 001°24'9619.1
2017-Oct-05 20:24N 36°30' W 000°34'719.0
2017-Oct-05 20:00N 36°29' W 000°43'1019.1
2017-Oct-05 19:30N 36°27' W 000°55'919.4
2017-Oct-05 19:00N 36°26' W 001°07'1419.4
2017-Oct-05 18:18N 36°23' W 001°23'919.6
2017-Oct-05 17:51N 36°20' W 001°34'719.8
2017-Oct-05 17:30N 36°19' W 001°42'16819.4
2017-Oct-05 08:51N 36°01' W 005°09'719.5
2017-Oct-05 08:30N 35°60' W 005°18'11418.1
2017-Oct-05 02:12N 36°13' W 007°38'5418.5
2017-Oct-04 23:19N 36°27' W 008°42'818.9
2017-Oct-04 22:53N 36°29' W 008°52'919.1
2017-Oct-04 22:25N 36°31' W 009°03'819.1
2017-Oct-04 21:58N 36°33' W 009°13'918.2
2017-Oct-04 21:30N 36°38' W 009°22'919.0
2017-Oct-04 21:00N 36°45' W 009°30'2519.0
2017-Oct-04 19:40N 37°10' W 009°38'419.1
2017-Oct-04 19:26N 37°14' W 009°39'919.2
2017-Oct-04 18:56N 37°23' W 009°42'819.3
2017-Oct-04 18:30N 37°31' W 009°45'1019.5
2017-Oct-04 18:00N 37°41' W 009°47'1019.2
2017-Oct-04 17:31N 37°50' W 009°49'1019.7
2017-Oct-04 17:00N 37°60' W 009°52'1019.2
2017-Oct-04 16:30N 38°09' W 009°56'1018.8
2017-Oct-04 15:59N 38°19' W 009°59'918.9
2017-Oct-04 15:29N 38°28' W 010°02'919.0
2017-Oct-04 15:00N 38°37' W 010°04'1019.3
2017-Oct-04 14:30N 38°46' W 010°05'1019.8
2017-Oct-04 14:00N 38°56' W 010°04'1019.6
2017-Oct-04 13:30N 39°06' W 010°04'1019.2
2017-Oct-04 13:01N 39°15' W 010°06'1119.7
2017-Oct-04 12:28N 39°26' W 010°05'2319.3
2017-Oct-04 11:17N 39°49' W 010°05'1019.6
2017-Oct-04 10:45N 39°60' W 010°05'619.6
2017-Oct-04 10:26N 40°06' W 010°04'1519.3
2017-Oct-04 09:39N 40°21' W 010°05'719.6
2017-Oct-04 09:18N 40°28' W 010°05'2419.6
2017-Oct-04 08:06N 40°51' W 010°04'1320.1
2017-Oct-04 07:26N 41°05' W 010°04'819.6
2017-Oct-04 07:00N 41°13' W 010°03'2519.5
2017-Oct-04 05:45N 41°38' W 010°03'519.5
2017-Oct-04 05:30N 41°42' W 010°03'1019.5
2017-Oct-04 05:00N 41°52' W 010°03'45818.9
2017-Oct-03 04:43N 48°53' W 005°46'  
Track history (hours):
 
Tides and Currents Weather Stations Pressure Air Temp Water Temp Dewpoint Dewpoint Depression Visibility Wind Speed Wind Dir Waves Ship Positions

Seago Piraeus

Last reported at 2017-Oct-13 03:21 UTC. Time now 2017-Oct-18 16:57 UTC.
Position N 31°51' E 034°37'.

Length 294 m; draft 9.9 m.

Type: Ship (hazmat cat A). MMSI: 219117000.

Date/timePositionNaut miles runAvg speedWind from/ knotsBaromVisibWave heightAir tempDewpointWater temp
2017-Oct-13 03:21N 31°51' E 034°37'1 0.0
2017-Oct-10 23:28N 31°53' E 034°37'18 2.3
2017-Oct-10 15:37N 32°04' E 034°22'313.8
2017-Oct-10 15:24N 32°07' E 034°20'714.0
2017-Oct-10 14:55N 32°13' E 034°18'1314.2
2017-Oct-10 13:59N 32°26' E 034°13'14213.8
2017-Oct-10 03:43N 34°36' E 033°05'211.8
2017-Oct-10 03:30N 34°39' E 033°04'2 4.8
2017-Oct-10 03:00N 34°39' E 033°01'0 0.0
2017-Oct-10 02:30N 34°39' E 033°01'0 0.0
2017-Oct-10 02:00N 34°39' E 033°01'0 0.0
2017-Oct-10 01:30N 34°39' E 033°01'0 0.0
2017-Oct-10 01:00N 34°39' E 033°01'0 0.0
2017-Oct-10 00:30N 34°39' E 033°01'0 0.0
2017-Oct-10 00:00N 34°39' E 033°01'0 0.0
2017-Oct-09 23:27N 34°39' E 033°01'0 0.0
2017-Oct-09 22:57N 34°39' E 033°01'0 0.0
2017-Oct-09 22:27N 34°39' E 033°01'0 0.0
2017-Oct-09 22:00N 34°39' E 033°01'0 0.0
2017-Oct-09 21:30N 34°39' E 033°01'0 0.0
2017-Oct-09 21:00N 34°39' E 033°01'0 0.0
2017-Oct-09 20:24N 34°39' E 033°01'0 0.0
2017-Oct-09 20:00N 34°39' E 033°01'0 0.0
2017-Oct-09 19:27N 34°39' E 033°01'0 0.0
2017-Oct-09 19:00N 34°39' E 033°01'0 0.0
2017-Oct-09 18:30N 34°39' E 033°01'0 0.0
2017-Oct-09 18:00N 34°39' E 033°01'0 0.0
2017-Oct-09 17:30N 34°39' E 033°01'0 0.0
2017-Oct-09 17:00N 34°39' E 033°01'0 0.0
2017-Oct-09 16:30N 34°39' E 033°01'0 0.0
2017-Oct-09 16:00N 34°39' E 033°01'0 0.0
2017-Oct-09 15:30N 34°39' E 033°01'0 0.0
2017-Oct-09 15:00N 34°39' E 033°01'0 0.0
2017-Oct-09 14:30N 34°39' E 033°01'0 0.0
2017-Oct-09 14:00N 34°39' E 033°01'0 0.0
2017-Oct-09 13:30N 34°39' E 033°01'0 0.0
2017-Oct-09 13:00N 34°39' E 033°01'0 0.0
2017-Oct-09 12:30N 34°39' E 033°01'0 0.0
2017-Oct-09 12:00N 34°39' E 033°01'0 0.0
2017-Oct-09 11:30N 34°39' E 033°01'1 2.3
2017-Oct-09 11:00N 34°39' E 033°02'42118.7
2017-Oct-08 12:28N 35°40' E 024°33'47318.8
2017-Oct-07 11:19N 36°29' E 014°51'619.5
2017-Oct-07 11:00N 36°29' E 014°44'1019.8
2017-Oct-07 10:30N 36°31' E 014°31'1019.9
2017-Oct-07 10:00N 36°33' E 014°19'1019.9
2017-Oct-07 09:30N 36°36' E 014°08'1019.7
2017-Oct-07 09:00N 36°39' E 013°56'1019.5
2017-Oct-07 08:30N 36°41' E 013°44'1019.7
2017-Oct-07 08:00N 36°45' E 013°33'57219.1
2017-Oct-06 02:04N 36°50' E 001°39'119.1
2017-Oct-06 02:00N 36°50' E 001°37'1019.1
2017-Oct-06 01:27N 36°48' E 001°24'9619.1
2017-Oct-05 20:24N 36°30' W 000°34'719.0
2017-Oct-05 20:00N 36°29' W 000°43'1019.1
2017-Oct-05 19:30N 36°27' W 000°55'919.4
2017-Oct-05 19:00N 36°26' W 001°07'1419.4
2017-Oct-05 18:18N 36°23' W 001°23'919.6
2017-Oct-05 17:51N 36°20' W 001°34'719.8
2017-Oct-05 17:30N 36°19' W 001°42'16819.4
2017-Oct-05 08:51N 36°01' W 005°09'719.5
2017-Oct-05 08:30N 35°60' W 005°18'11418.1
2017-Oct-05 02:12N 36°13' W 007°38'5418.5
2017-Oct-04 23:19N 36°27' W 008°42'818.9
2017-Oct-04 22:53N 36°29' W 008°52'919.1
2017-Oct-04 22:25N 36°31' W 009°03'819.1
2017-Oct-04 21:58N 36°33' W 009°13'918.2
2017-Oct-04 21:30N 36°38' W 009°22'919.0
2017-Oct-04 21:00N 36°45' W 009°30'2519.0
2017-Oct-04 19:40N 37°10' W 009°38'419.1
2017-Oct-04 19:26N 37°14' W 009°39'919.2
2017-Oct-04 18:56N 37°23' W 009°42'819.3
2017-Oct-04 18:30N 37°31' W 009°45'1019.5
2017-Oct-04 18:00N 37°41' W 009°47'1019.2
2017-Oct-04 17:31N 37°50' W 009°49'1019.7
2017-Oct-04 17:00N 37°60' W 009°52'1019.2
2017-Oct-04 16:30N 38°09' W 009°56'1018.8
2017-Oct-04 15:59N 38°19' W 009°59'918.9
2017-Oct-04 15:29N 38°28' W 010°02'919.0
2017-Oct-04 15:00N 38°37' W 010°04'1019.3
2017-Oct-04 14:30N 38°46' W 010°05'1019.8
2017-Oct-04 14:00N 38°56' W 010°04'1019.6
2017-Oct-04 13:30N 39°06' W 010°04'1019.2
2017-Oct-04 13:01N 39°15' W 010°06'1119.7
2017-Oct-04 12:28N 39°26' W 010°05'2319.3
2017-Oct-04 11:17N 39°49' W 010°05'1019.6
2017-Oct-04 10:45N 39°60' W 010°05'619.6
2017-Oct-04 10:26N 40°06' W 010°04'1519.3
2017-Oct-04 09:39N 40°21' W 010°05'719.6
2017-Oct-04 09:18N 40°28' W 010°05'2419.6
2017-Oct-04 08:06N 40°51' W 010°04'1320.1
2017-Oct-04 07:26N 41°05' W 010°04'819.6
2017-Oct-04 07:00N 41°13' W 010°03'2519.5
2017-Oct-04 05:45N 41°38' W 010°03'519.5
2017-Oct-04 05:30N 41°42' W 010°03'1019.5
2017-Oct-04 05:00N 41°52' W 010°03'45818.9
2017-Oct-03 04:43N 48°53' W 005°46'  

Dump ship's entire track history